DLH55R EDDH-KDEN
Flight info
| Callsign | DLH55R |
|---|---|
| Flight time | N/A |
| Altitude | 35000 |
| Route | ELSOB3G ELSOB Y348 OMWEG DCT ASMUS DCT INSUS DCT GOLUM/N0484F360 L975 LESRA DCT DOKEN DCT GOMOT DCT PIPAR DCT BRUCE DCT AMLAD DCT PIKIL/M084F380 DCT 5630N02000W 5730N03000W 5830N04000W 5930N05000W DCT URTAK/N0493F380 DCT LAKES DCT 5630N07000W 5330N08000W/N0494F400 4930N09000W DCT KP84A DCT NYTRO AALLE4 |
| Aircraft | A359/H-SDE2E3GHIJ1J3J4J5LM1ORWXY/LB1D1 |
Departure
| Time | 2026-05-05 23:36 |
|---|---|
| Airport | Hamburg Helmut Schmidt Airport (EDDH) |
Arrival
| Time | N/A |
|---|---|
| Airport | Denver International Airport (KDEN) |
| Time | Latitude | Longitude | Altitude | Speed | Heading |
|---|---|---|---|---|---|
| 2026-05-05 23:02 | 53.63282 | 10.00351 | 57 ft | 0 kts | 86° |
| 2026-05-05 23:03 | 53.63294 | 10.00334 | 49 ft | 0 kts | 87° |
| 2026-05-05 23:26 | 53.63293 | 10.00328 | 57 ft | 3 kts | 87° |
| 2026-05-05 23:27 | 53.63292 | 10.00283 | 62 ft | 4 kts | 87° |
| 2026-05-05 23:27 | 53.63291 | 10.00247 | 42 ft | 4 kts | 92° |
| 2026-05-05 23:27 | 53.63298 | 10.00211 | 49 ft | 4 kts | 150° |
| 2026-05-05 23:27 | 53.63321 | 10.00201 | 49 ft | 4 kts | 176° |
| 2026-05-05 23:28 | 53.63335 | 10.00200 | 49 ft | 0 kts | 176° |
| 2026-05-05 23:32 | 53.63330 | 10.00201 | 49 ft | 4 kts | 176° |
| 2026-05-05 23:32 | 53.63297 | 10.00205 | 49 ft | 6 kts | 176° |
| 2026-05-05 23:32 | 53.63252 | 10.00210 | 50 ft | 7 kts | 176° |
| 2026-05-05 23:33 | 53.63197 | 10.00216 | 49 ft | 9 kts | 176° |
| 2026-05-05 23:33 | 53.63129 | 10.00224 | 50 ft | 12 kts | 176° |
| 2026-05-05 23:33 | 53.63046 | 10.00199 | 53 ft | 13 kts | 211° |
| 2026-05-05 23:33 | 53.62968 | 10.00113 | 49 ft | 14 kts | 213° |
| 2026-05-05 23:34 | 53.62887 | 10.00042 | 50 ft | 10 kts | 202° |
| 2026-05-05 23:34 | 53.62854 | 9.99985 | 51 ft | 0 kts | 241° |
| 2026-05-05 23:34 | 53.62831 | 9.99917 | 48 ft | 9 kts | 242° |
| 2026-05-05 23:35 | 53.62819 | 9.99809 | 51 ft | 10 kts | 295° |
| 2026-05-05 23:35 | 53.62868 | 9.99738 | 49 ft | 9 kts | 333° |
| 2026-05-05 23:35 | 53.62985 | 9.99641 | 51 ft | 44 kts | 333° |
| 2026-05-05 23:35 | 53.63445 | 9.99244 | 51 ft | 102 kts | 333° |
| 2026-05-05 23:36 | 53.63932 | 9.98824 | 50 ft | 135 kts | 333° |
| 2026-05-05 23:36 | 53.65227 | 9.97745 | 470 ft | 156 kts | 337° |
| 2026-05-05 23:36 | 53.65899 | 9.97219 | 748 ft | 163 kts | 338° |
| 2026-05-05 23:36 | 53.67305 | 9.96075 | 1282 ft | 180 kts | 340° |
| 2026-05-05 23:37 | 53.68090 | 9.95406 | 1444 ft | 192 kts | 339° |
| 2026-05-05 23:37 | 53.69310 | 9.94331 | 1741 ft | 207 kts | 339° |
| 2026-05-05 23:37 | 53.70566 | 9.93025 | 2170 ft | 219 kts | 326° |
| 2026-05-05 23:37 | 53.71406 | 9.90823 | 2605 ft | 234 kts | 287° |
| 2026-05-05 23:38 | 53.71316 | 9.88075 | 3135 ft | 237 kts | 253° |
| 2026-05-05 23:38 | 53.70789 | 9.85417 | 3615 ft | 242 kts | 249° |
| 2026-05-05 23:38 | 53.70206 | 9.82685 | 3886 ft | 259 kts | 250° |
| 2026-05-05 23:38 | 53.69595 | 9.79744 | 4278 ft | 269 kts | 250° |
| 2026-05-05 23:39 | 53.68985 | 9.76739 | 4922 ft | 270 kts | 251° |
| 2026-05-05 23:39 | 53.68384 | 9.73719 | 5549 ft | 272 kts | 251° |
| 2026-05-05 23:39 | 53.67783 | 9.70685 | 6257 ft | 272 kts | 250° |
| 2026-05-05 23:39 | 53.67180 | 9.67638 | 6923 ft | 273 kts | 250° |
| 2026-05-05 23:40 | 53.66704 | 9.64564 | 7595 ft | 275 kts | 260° |
| 2026-05-05 23:40 | 53.66631 | 9.61346 | 8301 ft | 277 kts | 276° |
| 2026-05-05 23:40 | 53.67225 | 9.58262 | 9012 ft | 279 kts | 300° |
| 2026-05-05 23:40 | 53.68571 | 9.55906 | 9735 ft | 282 kts | 324° |
| 2026-05-05 23:41 | 53.70302 | 9.54249 | 10302 ft | 290 kts | 334° |
| 2026-05-05 23:41 | 53.72196 | 9.52972 | 10814 ft | 296 kts | 339° |
| 2026-05-05 23:41 | 53.74152 | 9.51879 | 11404 ft | 300 kts | 341° |
| 2026-05-05 23:41 | 53.76152 | 9.50812 | 12031 ft | 303 kts | 341° |
| 2026-05-05 23:42 | 53.78179 | 9.49702 | 12634 ft | 307 kts | 340° |
| 2026-05-05 23:42 | 53.80216 | 9.48530 | 13250 ft | 310 kts | 339° |
| 2026-05-05 23:42 | 53.82259 | 9.47303 | 13841 ft | 313 kts | 339° |
| 2026-05-05 23:42 | 53.84319 | 9.46032 | 14344 ft | 316 kts | 338° |
| 2026-05-05 23:43 | 53.86374 | 9.44746 | 14904 ft | 319 kts | 338° |
| 2026-05-05 23:43 | 53.88459 | 9.43434 | 15426 ft | 321 kts | 337° |
| 2026-05-05 23:43 | 53.90569 | 9.42103 | 15954 ft | 324 kts | 337° |
| 2026-05-05 23:43 | 53.92694 | 9.40761 | 16437 ft | 327 kts | 337° |
| 2026-05-05 23:44 | 53.94842 | 9.39405 | 16975 ft | 330 kts | 337° |
| 2026-05-05 23:44 | 53.97006 | 9.38041 | 17488 ft | 334 kts | 337° |
| 2026-05-05 23:44 | 53.99165 | 9.36679 | 17982 ft | 337 kts | 337° |
| 2026-05-05 23:44 | 54.01380 | 9.35282 | 18466 ft | 340 kts | 337° |
| 2026-05-05 23:45 | 54.03611 | 9.33873 | 18921 ft | 342 kts | 336° |
| 2026-05-05 23:45 | 54.05851 | 9.32458 | 19365 ft | 345 kts | 336° |
| 2026-05-05 23:45 | 54.08117 | 9.31024 | 19838 ft | 347 kts | 336° |
| 2026-05-05 23:45 | 54.10358 | 9.29605 | 20286 ft | 349 kts | 336° |
| 2026-05-05 23:46 | 54.12646 | 9.28154 | 20729 ft | 352 kts | 336° |
| 2026-05-05 23:46 | 54.14955 | 9.26687 | 21209 ft | 354 kts | 335° |
| 2026-05-05 23:46 | 54.17260 | 9.25223 | 21727 ft | 354 kts | 335° |
| 2026-05-05 23:46 | 54.19592 | 9.23735 | 22010 ft | 362 kts | 335° |
| 2026-05-05 23:47 | 54.21995 | 9.22198 | 22209 ft | 372 kts | 335° |
| 2026-05-05 23:47 | 54.24450 | 9.20625 | 22434 ft | 381 kts | 335° |
| 2026-05-05 23:47 | 54.26966 | 9.19013 | 22650 ft | 391 kts | 336° |
| 2026-05-05 23:47 | 54.29542 | 9.17362 | 22861 ft | 400 kts | 336° |
| 2026-05-05 23:48 | 54.32154 | 9.15688 | 23088 ft | 410 kts | 336° |
| 2026-05-05 23:48 | 54.34853 | 9.13957 | 23318 ft | 419 kts | 336° |
| 2026-05-05 23:48 | 54.37616 | 9.12183 | 23544 ft | 427 kts | 336° |
| 2026-05-05 23:48 | 54.40422 | 9.10379 | 23830 ft | 433 kts | 336° |
| 2026-05-05 23:49 | 54.43274 | 9.08545 | 24195 ft | 437 kts | 335° |
| 2026-05-05 23:49 | 54.46147 | 9.06695 | 24575 ft | 440 kts | 335° |
| 2026-05-05 23:49 | 54.48993 | 9.04859 | 24946 ft | 444 kts | 335° |
| 2026-05-05 23:49 | 54.51909 | 9.02973 | 25323 ft | 447 kts | 335° |
| 2026-05-05 23:50 | 54.54836 | 9.01076 | 25710 ft | 450 kts | 335° |
| 2026-05-05 23:50 | 54.57769 | 8.99171 | 26070 ft | 453 kts | 335° |
| 2026-05-05 23:50 | 54.60735 | 8.97242 | 26434 ft | 456 kts | 335° |
| 2026-05-05 23:50 | 54.63684 | 8.95321 | 26787 ft | 459 kts | 335° |
| 2026-05-05 23:51 | 54.66673 | 8.93370 | 27148 ft | 462 kts | 335° |
| 2026-05-05 23:51 | 54.69708 | 8.91388 | 27555 ft | 464 kts | 334° |
| 2026-05-05 23:51 | 54.72744 | 8.89403 | 27958 ft | 466 kts | 334° |
| 2026-05-05 23:51 | 54.75749 | 8.87433 | 28308 ft | 469 kts | 333° |
| 2026-05-05 23:52 | 54.78809 | 8.85422 | 28635 ft | 471 kts | 333° |
| 2026-05-05 23:52 | 54.81885 | 8.83398 | 28959 ft | 474 kts | 333° |
| 2026-05-05 23:52 | 54.84985 | 8.81355 | 29296 ft | 477 kts | 333° |
| 2026-05-05 23:52 | 54.88110 | 8.79293 | 29611 ft | 480 kts | 333° |
| 2026-05-05 23:53 | 54.91246 | 8.77220 | 29920 ft | 482 kts | 333° |
| 2026-05-05 23:53 | 54.94360 | 8.75159 | 30199 ft | 484 kts | 333° |
| 2026-05-05 23:53 | 54.97526 | 8.73061 | 30540 ft | 486 kts | 333° |
| 2026-05-05 23:53 | 55.00675 | 8.70899 | 30815 ft | 485 kts | 329° |
| 2026-05-05 23:54 | 55.03643 | 8.68163 | 31026 ft | 479 kts | 321° |
| 2026-05-05 23:54 | 55.06270 | 8.64766 | 31276 ft | 471 kts | 311° |
| 2026-05-05 23:54 | 55.08541 | 8.60685 | 31505 ft | 464 kts | 302° |
| 2026-05-05 23:54 | 55.10370 | 8.56098 | 31736 ft | 457 kts | 294° |
| 2026-05-05 23:55 | 55.11848 | 8.51185 | 31961 ft | 454 kts | 288° |
| 2026-05-05 23:55 | 55.13099 | 8.46127 | 32189 ft | 453 kts | 285° |
| 2026-05-05 23:55 | 55.14220 | 8.41071 | 32461 ft | 451 kts | 284° |
| 2026-05-05 23:55 | 55.15320 | 8.35915 | 32820 ft | 449 kts | 284° |
| 2026-05-05 23:56 | 55.16413 | 8.30794 | 33149 ft | 448 kts | 284° |
| 2026-05-05 23:56 | 55.17506 | 8.25745 | 33471 ft | 448 kts | 284° |
| 2026-05-05 23:56 | 55.18627 | 8.20637 | 33674 ft | 449 kts | 285° |
| 2026-05-05 23:56 | 55.19758 | 8.15541 | 33942 ft | 449 kts | 285° |
| 2026-05-05 23:57 | 55.20896 | 8.10446 | 34189 ft | 448 kts | 285° |
| 2026-05-05 23:57 | 55.21969 | 8.05336 | 34368 ft | 445 kts | 281° |
| 2026-05-05 23:57 | 55.22724 | 8.00096 | 34544 ft | 441 kts | 276° |
| 2026-05-05 23:57 | 55.23299 | 7.94810 | 34715 ft | 440 kts | 275° |
| 2026-05-05 23:58 | 55.23819 | 7.89532 | 34888 ft | 440 kts | 274° |
| 2026-05-05 23:58 | 55.24312 | 7.84225 | 35044 ft | 441 kts | 274° |
| 2026-05-05 23:58 | 55.24784 | 7.78976 | 35214 ft | 441 kts | 274° |
| 2026-05-05 23:58 | 55.25257 | 7.73671 | 35357 ft | 441 kts | 274° |
| 2026-05-05 23:59 | 55.25731 | 7.68344 | 35471 ft | 443 kts | 274° |
| 2026-05-05 23:59 | 55.26209 | 7.62984 | 35595 ft | 444 kts | 275° |
| 2026-05-05 23:59 | 55.26689 | 7.57620 | 35749 ft | 444 kts | 275° |
| 2026-05-05 23:59 | 55.27167 | 7.52260 | 35902 ft | 444 kts | 275° |
| 2026-05-06 00:00 | 55.27640 | 7.46957 | 36040 ft | 445 kts | 275° |
| 2026-05-06 00:00 | 55.28117 | 7.41570 | 36173 ft | 445 kts | 275° |
| 2026-05-06 00:00 | 55.28592 | 7.36182 | 36317 ft | 445 kts | 275° |
| 2026-05-06 00:00 | 55.29057 | 7.30876 | 36440 ft | 445 kts | 275° |
| 2026-05-06 00:01 | 55.29527 | 7.25491 | 36563 ft | 446 kts | 275° |
| 2026-05-06 00:01 | 55.29993 | 7.20108 | 36683 ft | 446 kts | 275° |
| 2026-05-06 00:01 | 55.30458 | 7.14721 | 36811 ft | 446 kts | 275° |
| 2026-05-06 00:01 | 55.30920 | 7.09331 | 36939 ft | 446 kts | 275° |
| 2026-05-06 00:02 | 55.31842 | 6.98481 | 36987 ft | 451 kts | 275° |
| 2026-05-06 00:02 | 55.32755 | 6.87622 | 36985 ft | 453 kts | 275° |
| 2026-05-06 00:03 | 55.33667 | 6.76675 | 36995 ft | 452 kts | 275° |
| 2026-05-06 00:03 | 55.34567 | 6.65745 | 36987 ft | 451 kts | 275° |
| 2026-05-06 00:04 | 55.35456 | 6.54820 | 36991 ft | 453 kts | 275° |
| 2026-05-06 00:04 | 55.36331 | 6.43926 | 36991 ft | 453 kts | 275° |
| 2026-05-06 00:05 | 55.37642 | 6.27392 | 36992 ft | 453 kts | 275° |
| 2026-05-06 00:06 | 55.38496 | 6.16468 | 36997 ft | 453 kts | 275° |
| 2026-05-06 00:06 | 55.39344 | 6.05474 | 37002 ft | 454 kts | 275° |
| 2026-05-06 00:07 | 55.40187 | 5.94399 | 36982 ft | 456 kts | 275° |
| 2026-05-06 00:07 | 55.41022 | 5.83321 | 37002 ft | 456 kts | 275° |
| 2026-05-06 00:08 | 55.41843 | 5.72286 | 36992 ft | 456 kts | 275° |
| 2026-05-06 00:08 | 55.42652 | 5.61269 | 36989 ft | 456 kts | 275° |
| 2026-05-06 00:09 | 55.43457 | 5.50169 | 36999 ft | 457 kts | 275° |
| 2026-05-06 00:09 | 55.44252 | 5.39033 | 37012 ft | 458 kts | 275° |
| 2026-05-06 00:10 | 55.44227 | 5.27885 | 37001 ft | 454 kts | 260° |
| 2026-05-06 00:10 | 55.42532 | 5.17240 | 36999 ft | 452 kts | 249° |
| 2026-05-06 00:11 | 55.40369 | 5.06885 | 37003 ft | 453 kts | 253° |
| 2026-05-06 00:11 | 55.39445 | 4.95934 | 37003 ft | 455 kts | 269° |
| 2026-05-06 00:12 | 55.40220 | 4.84812 | 37004 ft | 459 kts | 278° |
| 2026-05-06 00:12 | 55.41465 | 4.73850 | 37002 ft | 459 kts | 279° |
| 2026-05-06 00:13 | 55.42766 | 4.62812 | 37001 ft | 459 kts | 279° |
| 2026-05-06 00:13 | 55.44026 | 4.51756 | 37001 ft | 459 kts | 278° |
| 2026-05-06 00:14 | 55.45245 | 4.40772 | 37009 ft | 459 kts | 278° |
| 2026-05-06 00:14 | 55.46454 | 4.29718 | 37008 ft | 459 kts | 278° |
| 2026-05-06 00:15 | 55.47653 | 4.18670 | 37006 ft | 459 kts | 278° |
| 2026-05-06 00:15 | 55.48838 | 4.07662 | 37001 ft | 459 kts | 278° |
| 2026-05-06 00:16 | 55.50019 | 3.96595 | 37006 ft | 458 kts | 278° |
| 2026-05-06 00:16 | 55.51191 | 3.85510 | 37003 ft | 458 kts | 278° |
| 2026-05-06 00:17 | 55.52343 | 3.74518 | 36999 ft | 457 kts | 278° |
| 2026-05-06 00:17 | 55.53494 | 3.63437 | 36999 ft | 457 kts | 278° |
| 2026-05-06 00:18 | 55.54625 | 3.52434 | 37017 ft | 457 kts | 278° |
| 2026-05-06 00:18 | 55.55753 | 3.41364 | 37010 ft | 457 kts | 278° |
| 2026-05-06 00:19 | 55.56870 | 3.30306 | 37022 ft | 457 kts | 277° |
| 2026-05-06 00:19 | 55.57972 | 3.19285 | 37020 ft | 457 kts | 277° |
| 2026-05-06 00:20 | 55.59063 | 3.08267 | 37034 ft | 457 kts | 277° |
| 2026-05-06 00:20 | 55.60151 | 2.97180 | 37031 ft | 457 kts | 277° |
| 2026-05-06 00:21 | 55.61227 | 2.86094 | 37038 ft | 457 kts | 277° |
| 2026-05-06 00:21 | 55.62294 | 2.75005 | 36788 ft | 454 kts | 277° |
| 2026-05-06 00:21 | 55.62813 | 2.69583 | 36528 ft | 452 kts | 277° |
| 2026-05-06 00:22 | 55.63334 | 2.64102 | 36279 ft | 451 kts | 277° |
| 2026-05-06 00:22 | 55.63852 | 2.58618 | 36077 ft | 452 kts | 277° |
| 2026-05-06 00:22 | 55.64369 | 2.53107 | 36043 ft | 455 kts | 277° |
| 2026-05-06 00:23 | 55.65231 | 2.43871 | 36043 ft | 457 kts | 277° |
| 2026-05-06 00:23 | 55.66258 | 2.32770 | 36051 ft | 457 kts | 277° |
| 2026-05-06 00:24 | 55.67276 | 2.21661 | 36060 ft | 457 kts | 277° |
| 2026-05-06 00:24 | 55.68286 | 2.10533 | 36053 ft | 457 kts | 277° |
| 2026-05-06 00:25 | 55.69369 | 1.99402 | 36059 ft | 458 kts | 277° |
| 2026-05-06 00:25 | 55.70489 | 1.88339 | 36059 ft | 458 kts | 277° |
| 2026-05-06 00:26 | 55.71599 | 1.77204 | 36061 ft | 458 kts | 277° |
| 2026-05-06 00:26 | 55.72681 | 1.66110 | 36067 ft | 458 kts | 277° |
| 2026-05-06 00:27 | 55.73756 | 1.54942 | 36066 ft | 459 kts | 277° |
| 2026-05-06 00:27 | 55.74815 | 1.43826 | 36063 ft | 459 kts | 277° |
| 2026-05-06 00:28 | 55.75872 | 1.32625 | 36067 ft | 459 kts | 277° |
| 2026-05-06 00:28 | 55.76917 | 1.21430 | 36069 ft | 459 kts | 277° |
| 2026-05-06 00:29 | 55.77947 | 1.10296 | 36098 ft | 459 kts | 277° |
| 2026-05-06 00:29 | 55.78970 | 0.99109 | 36075 ft | 457 kts | 277° |
| 2026-05-06 00:30 | 55.79978 | 0.87987 | 36077 ft | 457 kts | 277° |
| 2026-05-06 00:30 | 55.80979 | 0.76806 | 36081 ft | 457 kts | 277° |
| 2026-05-06 00:31 | 55.81970 | 0.65634 | 36080 ft | 457 kts | 277° |
| 2026-05-06 00:31 | 55.82951 | 0.54440 | 36089 ft | 457 kts | 277° |
| 2026-05-06 00:32 | 55.83918 | 0.43293 | 36086 ft | 457 kts | 277° |
| 2026-05-06 00:32 | 55.84878 | 0.32098 | 36083 ft | 457 kts | 277° |
| 2026-05-06 00:33 | 55.85823 | 0.20971 | 36085 ft | 457 kts | 277° |
| 2026-05-06 00:33 | 55.86762 | 0.09773 | 36081 ft | 457 kts | 276° |
| 2026-05-06 00:34 | 55.87692 | -0.01441 | 36101 ft | 457 kts | 276° |
| 2026-05-06 00:34 | 55.88613 | -0.12662 | 36087 ft | 457 kts | 276° |
| 2026-05-06 00:35 | 55.89517 | -0.23819 | 36090 ft | 457 kts | 276° |
| 2026-05-06 00:35 | 55.90412 | -0.34994 | 36090 ft | 457 kts | 276° |
| 2026-05-06 00:36 | 55.91301 | -0.46213 | 36092 ft | 457 kts | 276° |
| 2026-05-06 00:36 | 55.92184 | -0.57445 | 36101 ft | 454 kts | 276° |
| 2026-05-06 00:37 | 55.93117 | -0.68562 | 36097 ft | 456 kts | 277° |
| 2026-05-06 00:37 | 55.94072 | -0.79769 | 36100 ft | 457 kts | 277° |
| 2026-05-06 00:38 | 55.95010 | -0.90985 | 36106 ft | 457 kts | 276° |
| 2026-05-06 00:38 | 55.95925 | -1.02144 | 36103 ft | 457 kts | 276° |
| 2026-05-06 00:39 | 55.96834 | -1.13376 | 36116 ft | 457 kts | 276° |
| 2026-05-06 00:39 | 55.97733 | -1.24623 | 36104 ft | 456 kts | 276° |
| 2026-05-06 00:40 | 55.98619 | -1.35841 | 36106 ft | 456 kts | 276° |
| 2026-05-06 00:40 | 55.99489 | -1.46981 | 36104 ft | 456 kts | 276° |
| 2026-05-06 00:41 | 56.00356 | -1.58226 | 36107 ft | 456 kts | 276° |
| 2026-05-06 00:41 | 56.01215 | -1.69491 | 36110 ft | 456 kts | 276° |